createdAt,value
2018-10-06T11:05:28.799Z,100745.03
2018-10-06T11:07:58.027Z,100758.41
2018-10-06T11:10:27.233Z,100750.73
2018-10-06T11:12:56.624Z,100753.64
2018-10-06T11:15:25.841Z,100748.34
2018-10-06T11:17:55.029Z,100745.86
2018-10-06T11:20:24.283Z,100742.24
2018-10-06T11:22:53.483Z,100741.85
2018-10-06T11:25:23.707Z,100734.17
2018-10-06T11:27:52.923Z,100727.63
2018-10-06T11:30:22.124Z,100727.32
2018-10-06T11:32:51.346Z,100723.80
2018-10-06T11:35:20.728Z,100721.90
2018-10-06T11:37:50.087Z,100721.50
2018-10-06T11:40:19.232Z,100722.80
2018-10-06T11:42:48.490Z,100715.41
2018-10-06T11:45:17.882Z,100716.23
2018-10-06T11:47:46.992Z,100708.16
2018-10-06T11:50:16.245Z,100706.56
2018-10-06T11:52:45.394Z,100706.89
2018-10-06T11:55:14.629Z,100708.83
2018-10-06T11:57:43.883Z,100704.25
2018-10-06T12:00:13.328Z,100702.97
2018-10-06T12:02:42.397Z,100696.17
2018-10-06T12:05:11.629Z,100694.23
2018-10-06T12:07:40.863Z,100691.11
2018-10-06T12:10:10.161Z,100692.30
2018-10-06T12:12:39.432Z,100691.63
2018-10-06T12:15:08.661Z,100687.94
2018-10-06T12:17:37.904Z,100688.34
2018-10-06T12:20:07.091Z,100687.77
2018-10-06T12:22:36.329Z,100691.26
2018-10-06T12:25:05.566Z,100676.45
2018-10-06T12:27:34.778Z,100676.80
2018-10-06T12:30:04.130Z,100673.64
2018-10-06T12:32:33.395Z,100673.38
2018-10-06T12:35:04.293Z,100669.59
2018-10-06T12:37:33.438Z,100674.50
2018-10-06T12:40:02.692Z,100672.93
2018-10-06T12:42:31.992Z,100672.80
2018-10-06T12:45:01.205Z,100671.74
2018-10-06T12:47:33.361Z,100671.32
2018-10-06T12:50:02.625Z,100666.27
2018-10-06T12:52:32.041Z,100668.67
2018-10-06T12:55:01.294Z,100670.34
2018-10-06T12:57:30.661Z,100667.41
2018-10-06T13:00:00.046Z,100673.26
2018-10-06T13:02:29.284Z,100665.98
2018-10-06T13:04:58.559Z,100662.84
2018-10-06T13:07:27.887Z,100663.63
2018-10-06T13:09:57.188Z,100654.45
2018-10-06T13:12:26.507Z,100657.20
2018-10-06T13:14:55.793Z,100664.16
2018-10-06T13:17:25.108Z,100657.01
2018-10-06T13:19:54.392Z,100654.03
2018-10-06T13:22:23.733Z,100651.38
2018-10-06T13:24:53.021Z,100647.37
2018-10-06T13:27:22.293Z,100660.53
2018-10-06T13:29:53.451Z,100654.44
2018-10-06T13:32:22.839Z,100651.05
2018-10-06T13:34:52.155Z,100651.86
2018-10-06T13:37:21.690Z,100654.03
2018-10-06T13:39:51.513Z,100656.16
2018-10-06T13:42:20.843Z,100654.34
2018-10-06T13:44:50.217Z,100653.82
2018-10-06T13:47:19.490Z,100650.02
2018-10-06T13:49:48.842Z,100645.15
2018-10-06T13:52:20.128Z,100639.63
2018-10-06T13:54:49.472Z,100636.84
2018-10-06T13:57:19.269Z,100635.94
2018-10-06T13:59:48.686Z,100640.23
2018-10-06T14:02:20.090Z,100641.23
2018-10-06T14:04:49.411Z,100636.73
2018-10-06T14:07:18.695Z,100634.36
2018-10-06T14:09:48.029Z,100635.09
2018-10-06T14:12:17.331Z,100632.88
2018-10-06T14:14:46.627Z,100634.22
2018-10-06T14:17:15.999Z,100632.17
2018-10-06T14:19:45.323Z,100642.09
2018-10-06T14:22:15.251Z,100630.05
2018-10-06T14:24:44.550Z,100634.85
2018-10-06T14:27:13.980Z,100637.94
2018-10-06T14:29:43.314Z,100636.63
2018-10-06T14:32:12.613Z,100633.83
2018-10-06T14:34:42.918Z,100644.24
2018-10-06T14:37:12.253Z,100643.38
2018-10-06T14:39:41.562Z,100648.02
2018-10-06T14:42:10.808Z,100651.41
2018-10-06T14:44:40.127Z,100652.05
2018-10-06T14:47:09.366Z,100648.91
2018-10-06T14:49:38.584Z,100653.89
2018-10-06T14:52:07.906Z,100655.87
2018-10-06T14:54:37.155Z,100660.19
2018-10-06T14:57:06.432Z,100656.33
2018-10-06T14:59:35.625Z,100652.09
2018-10-06T15:02:04.855Z,100659.13
2018-10-06T15:04:34.067Z,100654.00
2018-10-06T15:07:04.214Z,100656.98
2018-10-06T15:09:33.362Z,100655.20
2018-10-06T15:12:02.561Z,100655.38
2018-10-06T15:14:31.785Z,100653.45
2018-10-06T15:17:02.013Z,100659.39
2018-10-06T15:19:31.212Z,100659.48
2018-10-06T15:22:00.458Z,100655.41
2018-10-06T15:24:29.676Z,100656.11
2018-10-06T15:27:00.455Z,100662.70
2018-10-06T15:29:29.653Z,100662.11
2018-10-06T15:31:58.909Z,100661.77
2018-10-06T15:34:28.098Z,100658.96
2018-10-06T15:36:57.345Z,100655.78
2018-10-06T15:39:26.535Z,100655.81
2018-10-06T15:41:55.766Z,100649.27
2018-10-06T15:44:25.004Z,100648.92
2018-10-06T15:46:54.291Z,100646.55
2018-10-06T15:49:23.518Z,100648.92
2018-10-06T15:51:52.753Z,100648.38
2018-10-06T15:54:21.966Z,100645.54
2018-10-06T15:56:51.352Z,100652.38
2018-10-06T15:59:20.606Z,100651.19
2018-10-06T16:01:49.908Z,100646.39
2018-10-06T16:04:19.114Z,100648.55
2018-10-06T16:06:48.356Z,100649.01
2018-10-06T16:09:17.531Z,100637.22
2018-10-06T16:11:46.774Z,100646.50
2018-10-06T16:14:15.974Z,100657.34
2018-10-06T16:16:45.617Z,100657.41
2018-10-06T16:19:14.843Z,100662.20
2018-10-06T16:21:44.197Z,100665.03
2018-10-06T16:24:13.453Z,100666.55
2018-10-06T16:26:42.631Z,100668.23
2018-10-06T16:29:11.815Z,100669.89
2018-10-06T16:31:41.002Z,100672.04
2018-10-06T16:34:10.823Z,100662.12
2018-10-06T16:36:40.024Z,100660.37
2018-10-06T16:39:09.253Z,100658.93
2018-10-06T16:41:38.431Z,100654.51
2018-10-06T16:44:07.711Z,100651.30
2018-10-06T16:46:36.911Z,100658.92
2018-10-06T16:49:07.221Z,100669.98
2018-10-06T16:51:36.501Z,100674.71
2018-10-06T16:54:05.894Z,100672.91
2018-10-06T16:56:35.157Z,100668.85
2018-10-06T16:59:04.361Z,100677.78
2018-10-06T17:01:33.651Z,100690.27
2018-10-06T17:04:02.789Z,100685.00
2018-10-06T17:06:32.202Z,100688.37
2018-10-06T17:09:01.637Z,100680.44
2018-10-06T17:11:30.910Z,100690.08
2018-10-06T17:14:00.144Z,100697.56
2018-10-06T17:16:29.338Z,100696.38
2018-10-06T17:18:58.537Z,100699.42
2018-10-06T17:21:27.730Z,100693.19
2018-10-06T17:23:56.991Z,100699.02
2018-10-06T17:26:26.226Z,100705.48
2018-10-06T17:28:55.465Z,100707.18
2018-10-06T17:31:24.707Z,100715.70
2018-10-06T17:33:54.258Z,100708.52
2018-10-06T17:36:23.474Z,100714.34
2018-10-06T17:38:52.915Z,100717.70
2018-10-06T17:41:22.130Z,100721.52
2018-10-06T17:43:51.436Z,100713.17
2018-10-06T17:46:21.264Z,100720.39
2018-10-06T17:48:50.623Z,100715.66
2018-10-06T17:51:19.999Z,100716.30
2018-10-06T17:53:49.382Z,100710.52
2018-10-06T17:56:18.674Z,100711.11
2018-10-06T17:58:47.999Z,100715.73
2018-10-06T18:01:17.254Z,100721.58
2018-10-06T18:03:46.557Z,100719.80
2018-10-06T18:06:21.271Z,100721.72
2018-10-06T18:08:50.587Z,100739.83
2018-10-06T18:11:19.867Z,100739.44
2018-10-06T18:13:49.299Z,100741.55
2018-10-06T18:16:18.984Z,100754.19
2018-10-06T18:18:48.248Z,100761.80
2018-10-06T18:21:17.541Z,100762.16
2018-10-06T18:23:46.795Z,100772.94
2018-10-06T18:26:16.101Z,100772.73
2018-10-06T18:28:45.409Z,100769.90
2018-10-06T18:31:14.745Z,100778.53
2018-10-06T18:33:44.077Z,100783.11
2018-10-06T18:36:17.822Z,100783.70
2018-10-06T18:38:47.050Z,100778.22
2018-10-06T18:41:16.396Z,100791.31
2018-10-06T18:43:45.731Z,100795.52
2018-10-06T18:46:15.472Z,100797.84
2018-10-06T18:48:44.719Z,100797.37
2018-10-06T18:51:13.980Z,100806.98
2018-10-06T18:53:43.226Z,100804.13
2018-10-06T18:56:12.531Z,100808.06
2018-10-06T18:58:41.908Z,100810.02
2018-10-06T19:01:11.199Z,100809.22
2018-10-06T19:03:40.557Z,100808.60
2018-10-06T19:06:09.673Z,100812.98
2018-10-06T19:08:38.906Z,100815.23
2018-10-06T19:11:08.129Z,100818.62
2018-10-06T19:13:37.353Z,100834.61
2018-10-06T19:16:07.264Z,100843.13
2018-10-06T19:18:36.561Z,100848.02
2018-10-06T19:21:05.809Z,100859.94
2018-10-06T19:23:35.229Z,100862.09
2018-10-06T19:26:04.650Z,100863.83
2018-10-06T19:28:34.956Z,100871.04
2018-10-06T19:31:04.331Z,100880.48
2018-10-06T19:33:33.599Z,100885.22
2018-10-06T19:36:02.971Z,100889.23
2018-10-06T19:38:32.383Z,100899.97
2018-10-06T19:41:01.636Z,100916.27
2018-10-06T19:43:30.935Z,100918.37
2018-10-06T19:46:00.268Z,100911.31
2018-10-06T19:48:29.485Z,100920.52
2018-10-06T19:51:00.754Z,100919.15
2018-10-06T19:53:30.025Z,100929.23
2018-10-06T19:55:59.351Z,100938.15
2018-10-06T19:58:28.636Z,100934.55
2018-10-06T20:00:57.831Z,100933.67
2018-10-06T20:03:27.073Z,100931.97
2018-10-06T20:05:56.318Z,100933.30
2018-10-06T20:08:25.540Z,100935.63
2018-10-06T20:10:54.768Z,100932.84
2018-10-06T20:13:23.963Z,100939.98
2018-10-06T20:15:53.195Z,100945.39
2018-10-06T20:18:22.406Z,100946.03
2018-10-06T20:20:51.613Z,100949.32
2018-10-06T20:23:20.833Z,100957.80
2018-10-06T20:25:50.047Z,100955.91
2018-10-06T20:28:19.257Z,100963.28
2018-10-06T20:30:48.501Z,100960.29
2018-10-06T20:33:17.736Z,100961.34
2018-10-06T20:35:46.959Z,100967.80
2018-10-06T20:38:16.219Z,100962.64
2018-10-06T20:40:45.641Z,100969.59
2018-10-06T20:43:14.925Z,100974.75
2018-10-06T20:45:44.165Z,100977.93
2018-10-06T20:48:13.474Z,100985.47
2018-10-06T20:50:42.805Z,100993.11
2018-10-06T20:53:12.139Z,100994.00
2018-10-06T20:55:41.481Z,100992.95
2018-10-06T20:58:10.716Z,101002.83
2018-10-06T21:00:40.149Z,101000.13
2018-10-06T21:03:09.442Z,101000.69
2018-10-06T21:05:38.662Z,101000.84
2018-10-06T21:08:07.909Z,100997.41
2018-10-06T21:10:37.131Z,100996.38
2018-10-06T21:13:06.394Z,100992.78
2018-10-06T21:15:35.723Z,100986.66
2018-10-06T21:18:04.947Z,100983.41
2018-10-06T21:20:34.343Z,100977.19
2018-10-06T21:23:03.584Z,100984.81
2018-10-06T21:25:32.802Z,100986.94
2018-10-06T21:28:01.994Z,100983.64
2018-10-06T21:30:31.251Z,100982.93
2018-10-06T21:33:00.537Z,100983.04
2018-10-06T21:35:29.726Z,100981.53
2018-10-06T21:37:58.989Z,100991.94
2018-10-06T21:40:28.384Z,100993.58
2018-10-06T21:42:57.794Z,101008.23
2018-10-06T21:45:27.086Z,101009.73
2018-10-06T21:47:56.323Z,101006.46
2018-10-06T21:50:25.566Z,101026.61
2018-10-06T21:52:54.788Z,101029.30
2018-10-06T21:55:24.016Z,101025.44
2018-10-06T21:57:53.358Z,101030.33
2018-10-06T22:00:22.570Z,101033.86
2018-10-06T22:02:51.872Z,101033.63
2018-10-06T22:05:21.120Z,101034.56
2018-10-06T22:07:50.646Z,101043.34
2018-10-06T22:10:19.885Z,101040.05
2018-10-06T22:12:49.120Z,101049.66
2018-10-06T22:15:18.411Z,101050.22
2018-10-06T22:17:47.569Z,101055.85
2018-10-06T22:20:16.792Z,101067.49
2018-10-06T22:22:46.011Z,101070.94
2018-10-06T22:25:15.337Z,101081.48
2018-10-06T22:27:44.516Z,101083.80
2018-10-06T22:30:13.732Z,101081.24
2018-10-06T22:32:42.966Z,101085.27
2018-10-06T22:35:12.303Z,101083.48
2018-10-06T22:37:41.501Z,101072.53
2018-10-06T22:40:10.766Z,101074.16
2018-10-06T22:42:39.999Z,101078.52
2018-10-06T22:45:09.252Z,101090.35
2018-10-06T22:47:38.483Z,101099.53
2018-10-06T22:50:08.155Z,101101.77
2018-10-06T22:52:37.371Z,101104.80
2018-10-06T22:55:06.615Z,101105.47
2018-10-06T22:57:35.910Z,101098.12
2018-10-06T23:00:05.454Z,101119.39
2018-10-06T23:02:34.895Z,101128.45
2018-10-06T23:05:04.233Z,101139.84
2018-10-06T23:07:33.522Z,101148.06
2018-10-06T23:10:02.766Z,101146.23
2018-10-06T23:12:32.916Z,101152.03
2018-10-06T23:15:02.169Z,101154.61
2018-10-06T23:17:31.411Z,101160.33
2018-10-06T23:20:00.620Z,101164.02
2018-10-06T23:22:29.824Z,101173.98
2018-10-06T23:24:59.338Z,101177.08
2018-10-06T23:27:28.791Z,101184.86
2018-10-06T23:29:58.060Z,101194.09
2018-10-06T23:32:27.294Z,101197.43
2018-10-06T23:34:56.607Z,101206.46
2018-10-06T23:37:25.886Z,101203.33
2018-10-06T23:39:55.166Z,101218.19
2018-10-06T23:42:24.440Z,101214.90
2018-10-06T23:44:54.836Z,101220.49
2018-10-06T23:47:24.096Z,101221.91
2018-10-06T23:49:53.338Z,101232.80
2018-10-06T23:52:22.763Z,101228.22
2018-10-06T23:54:52.038Z,101233.94
2018-10-06T23:57:21.364Z,101245.69
2018-10-06T23:59:50.633Z,101244.56
